Time;durP1;ratioP1;P1;durP2;ratioP2;P2;SDS_P1;SDS_P2;PMS_P1;PMS_P2;Temp;Humidity;BMP_temperature;BMP_pressure;BME280_temperature;BME280_humidity;BME280_pressure;Samples;Min_cycle;Max_cycle;Signal;HPM_P1;HPM_P2
2021/03/14 04:16:05;;;;;;;32.78;16.95;;;-0.20;99.90;;;;;;5087869;28;20505;-64
2021/03/14 04:18:32;;;;;;;29.80;16.27;;;-0.20;99.90;;;;;;5091479;28;20028;-65
2021/03/14 04:21:00;;;;;;;30.65;17.05;;;-0.20;99.90;;;;;;5091392;28;20028;-65
2021/03/14 04:23:27;;;;;;;29.60;16.27;;;-0.20;99.90;;;;;;5091463;28;20089;-64
2021/03/14 04:25:56;;;;;;;32.97;16.55;;;-0.20;99.90;;;;;;5091415;28;20374;-64
2021/03/14 04:28:27;;;;;;;31.52;17.05;;;-0.20;99.90;;;;;;5091463;28;20028;-65
2021/03/14 04:30:54;;;;;;;36.25;17.67;;;-0.20;99.90;;;;;;5091243;28;20032;-64
2021/03/14 04:33:21;;;;;;;32.60;17.20;;;-0.20;99.90;;;;;;5082210;28;20020;-64
2021/03/14 04:35:50;;;;;;;31.90;17.02;;;-0.20;99.90;;;;;;5086491;28;20111;-64
2021/03/14 04:38:16;;;;;;;35.28;16.38;;;-0.20;99.90;;;;;;5092673;28;20383;-64
2021/03/14 04:40:43;;;;;;;35.95;17.90;;;-0.20;99.90;;;;;;5095324;28;20383;-64
2021/03/14 04:43:09;;;;;;;28.80;16.77;;;-0.20;99.90;;;;;;5095302;28;20020;-64
2021/03/14 04:45:35;;;;;;;29.92;17.02;;;-0.20;99.90;;;;;;5095587;28;20368;-64
2021/03/14 04:48:01;;;;;;;30.50;17.52;;;-0.30;99.90;;;;;;5095359;28;20097;-64
2021/03/14 04:50:29;;;;;;;31.85;17.35;;;-0.30;99.90;;;;;;5095134;28;20483;-64
2021/03/14 04:52:58;;;;;;;33.22;17.42;;;-0.30;99.90;;;;;;5095390;28;20035;-64
2021/03/14 04:55:26;;;;;;;33.83;17.25;;;-0.30;99.90;;;;;;5094952;28;20552;-64
2021/03/14 04:57:54;;;;;;;34.15;17.50;;;-0.30;99.90;;;;;;5095167;28;20028;-64
2021/03/14 05:00:22;;;;;;;34.08;17.00;;;-0.30;99.90;;;;;;5094994;28;20134;-63
2021/03/14 05:02:51;;;;;;;32.05;17.65;;;-0.30;99.90;;;;;;5095082;28;20104;-64
2021/03/14 05:05:18;;;;;;;34.03;18.13;;;-0.30;99.90;;;;;;5094833;28;20418;-64
2021/03/14 05:07:46;;;;;;;32.42;16.38;;;-0.30;99.90;;;;;;5094960;28;20016;-63
2021/03/14 05:10:17;;;;;;;31.00;17.33;;;-0.30;99.90;;;;;;5094645;28;20111;-63
2021/03/14 05:12:43;;;;;;;;;;;-0.30;99.90;;;;;;5095292;28;20451;-63
2021/03/14 05:15:14;;;;;;;36.60;16.98;;;-0.30;99.90;;;;;;5094456;28;19951;-64
2021/03/14 05:17:40;;;;;;;33.78;16.25;;;-0.30;99.90;;;;;;5094939;28;20024;-64
2021/03/14 05:20:08;;;;;;;33.42;17.30;;;-0.40;99.90;;;;;;5094493;28;20028;-64
2021/03/14 05:22:38;;;;;;;33.67;17.55;;;-0.40;99.90;;;;;;5094611;28;20051;-65
2021/03/14 05:25:05;;;;;;;32.40;17.80;;;-0.40;99.90;;;;;;5094736;28;20025;-64
2021/03/14 05:27:33;;;;;;;29.27;16.02;;;-0.40;99.90;;;;;;5094268;28;20040;-64
2021/03/14 05:29:59;;;;;;;31.00;17.73;;;-0.40;99.90;;;;;;5094407;28;20597;-64
2021/03/14 05:32:25;;;;;;;27.92;16.08;;;-0.40;99.90;;;;;;5094205;28;20119;-65
2021/03/14 05:34:51;;;;;;;35.17;17.77;;;-0.40;99.90;;;;;;5094478;28;20093;-65
2021/03/14 05:37:16;;;;;;;31.80;17.73;;;-0.40;99.90;;;;;;5094234;28;20055;-66
2021/03/14 05:39:42;;;;;;;33.83;18.40;;;-0.40;99.90;;;;;;5094111;28;20047;-66
2021/03/14 05:42:09;;;;;;;30.88;15.48;;;-0.30;99.90;;;;;;5094163;28;20024;-67
2021/03/14 05:44:35;;;;;;;31.98;18.00;;;0.00;99.90;;;;;;5094204;28;20047;-69
2021/03/14 05:47:01;;;;;;;31.75;15.75;;;0.10;99.90;;;;;;5093578;28;20032;-67
2021/03/14 05:49:27;;;;;;;32.22;16.30;;;0.00;99.90;;;;;;5092623;28;20036;-67
2021/03/14 05:51:56;;;;;;;34.47;16.67;;;0.00;99.90;;;;;;5091155;28;20647;-66
2021/03/14 05:54:22;;;;;;;37.63;18.42;;;-0.10;99.90;;;;;;5089369;28;20043;-66
2021/03/14 05:56:49;;;;;;;33.95;17.10;;;-0.10;99.90;;;;;;5092241;28;20099;-69
2021/03/14 05:59:18;;;;;;;32.75;17.25;;;-0.20;99.90;;;;;;5090233;28;20048;-65
2021/03/14 06:01:49;;;;;;;32.92;17.38;;;-0.20;99.90;;;;;;5091159;28;20071;-65
2021/03/14 06:04:17;;;;;;;34.95;16.55;;;-0.20;99.90;;;;;;5092996;28;20524;-68
2021/03/14 06:06:43;;;;;;;31.75;16.60;;;-0.20;99.90;;;;;;5093281;28;20023;-68
2021/03/14 06:09:11;;;;;;;34.67;18.02;;;-0.20;99.90;;;;;;5090813;28;20024;-69
2021/03/14 06:11:36;;;;;;;38.60;17.77;;;-0.20;99.90;;;;;;5093041;28;20024;-69
2021/03/14 06:14:03;;;;;;;30.42;16.85;;;-0.20;99.90;;;;;;5092996;28;20070;-69
2021/03/14 06:16:29;;;;;;;36.03;18.58;;;-0.20;99.90;;;;;;5092587;28;20044;-68
2021/03/14 06:18:55;;;;;;;32.72;17.50;;;-0.20;99.90;;;;;;5089557;28;20059;-68
2021/03/14 06:21:27;;;;;;;32.25;17.40;;;-0.20;99.90;;;;;;5091709;28;20035;-68
2021/03/14 06:24:05;;;;;;;36.70;17.77;;;-0.20;99.90;;;;;;5092228;28;20029;-69
2021/03/14 06:26:57;;;;;;;37.72;18.05;;;-0.20;99.90;;;;;;5093012;28;20020;-68
2021/03/14 06:29:24;;;;;;;33.83;17.27;;;-0.20;99.90;;;;;;5089105;28;20494;-68
2021/03/14 06:31:51;;;;;;;36.25;18.70;;;-0.10;99.90;;;;;;5093474;28;20028;-68
2021/03/14 06:34:44;;;;;;;34.63;16.90;;;0.00;99.90;;;;;;5092736;28;20066;-68
2021/03/14 06:37:12;;;;;;;29.20;16.60;;;-0.10;99.90;;;;;;5093090;28;20074;-68
2021/03/14 06:39:46;;;;;;;33.30;17.67;;;-0.20;99.90;;;;;;5093182;28;20028;-68
2021/03/14 06:42:32;;;;;;;28.55;16.20;;;-0.20;99.90;;;;;;5093136;28;20385;-68
2021/03/14 06:45:24;;;;;;;37.83;17.80;;;-0.20;99.90;;;;;;5079897;28;20063;-68
2021/03/14 06:47:57;;;;;;;32.60;17.00;;;-0.10;99.90;;;;;;5088802;28;20035;-68
2021/03/14 06:50:28;;;;;;;32.70;17.40;;;-0.10;99.90;;;;;;5090669;28;20043;-68
2021/03/14 06:53:11;;;;;;;34.95;17.42;;;0.00;99.90;;;;;;5092822;28;20524;-67
2021/03/14 06:55:38;;;;;;;33.25;17.20;;;-0.10;99.90;;;;;;5092779;28;20470;-67
2021/03/14 06:58:26;;;;;;;36.17;17.63;;;-0.10;99.90;;;;;;5093107;28;20024;-68
2021/03/14 07:01:16;;;;;;;34.22;17.65;;;-0.10;99.90;;;;;;5092421;28;20020;-68
2021/03/14 07:03:54;;;;;;;35.40;17.88;;;0.00;99.90;;;;;;5092647;28;20016;-67
2021/03/14 07:06:22;;;;;;;29.80;15.90;;;0.00;99.90;;;;;;5092383;28;20048;-68
2021/03/14 07:09:09;;;;;;;29.77;15.07;;;0.70;99.90;;;;;;5092582;28;20091;-69
2021/03/14 07:11:43;;;;;;;34.75;17.65;;;1.70;99.90;;;;;;5091944;28;20036;-69
2021/03/14 07:14:11;;;;;;;30.02;16.55;;;1.50;99.90;;;;;;5091558;28;20031;-67
2021/03/14 07:16:49;;;;;;;30.60;16.80;;;1.20;99.90;;;;;;5092058;28;20032;-66
2021/03/14 07:19:21;;;;;;;33.75;16.92;;;1.00;99.90;;;;;;5092564;28;20074;-67
2021/03/14 07:22:02;;;;;;;31.42;17.58;;;0.80;99.90;;;;;;5089746;28;20053;-67
2021/03/14 07:24:34;;;;;;;39.15;18.63;;;0.70;99.90;;;;;;5090125;28;20041;-66
2021/03/14 07:27:01;;;;;;;32.53;17.52;;;0.60;99.90;;;;;;5090502;28;20028;-68
2021/03/14 07:29:28;;;;;;;35.58;19.00;;;0.50;99.90;;;;;;5090369;28;20036;-67
2021/03/14 07:31:55;;;;;;;35.97;18.20;;;0.40;99.90;;;;;;5091628;28;20483;-67
2021/03/14 07:34:21;;;;;;;33.20;18.88;;;0.40;99.90;;;;;;5091695;28;20024;-67
2021/03/14 07:36:48;;;;;;;32.35;18.35;;;0.40;99.90;;;;;;5091928;28;20022;-67
2021/03/14 07:39:15;;;;;;;33.40;18.38;;;0.40;99.90;;;;;;5090131;28;20024;-67
2021/03/14 07:41:42;;;;;;;33.25;19.50;;;0.30;99.90;;;;;;5090757;28;20055;-67
2021/03/14 07:44:08;;;;;;;34.20;18.55;;;0.40;99.90;;;;;;5084626;28;20043;-67
2021/03/14 07:46:35;;;;;;;32.75;17.40;;;0.40;99.90;;;;;;5087785;28;20408;-67
2021/03/14 07:49:02;;;;;;;40.65;19.63;;;0.40;99.90;;;;;;5091768;28;20028;-69
2021/03/14 07:51:30;;;;;;;36.10;18.98;;;0.40;99.90;;;;;;5086034;28;20444;-67
2021/03/14 07:54:02;;;;;;;37.78;20.08;;;0.30;99.90;;;;;;5091289;28;20034;-67
2021/03/14 07:56:37;;;;;;;32.55;17.83;;;0.30;99.90;;;;;;5087986;28;20422;-68
2021/03/14 07:59:04;;;;;;;32.10;18.10;;;0.30;99.90;;;;;;5091060;28;20039;-67
2021/03/14 08:01:36;;;;;;;37.08;18.05;;;0.30;99.90;;;;;;5090638;28;20031;-67
2021/03/14 08:04:02;;;;;;;35.22;18.17;;;0.40;99.90;;;;;;5071168;28;20071;-67
2021/03/14 08:06:44;;;;;;;33.22;17.95;;;0.30;99.90;;;;;;5080644;28;20028;-67
2021/03/14 08:09:10;;;;;;;32.85;18.10;;;0.30;99.90;;;;;;5075690;28;20028;-66
2021/03/14 08:11:36;;;;;;;34.95;18.33;;;0.30;99.90;;;;;;5087823;28;20024;-67
2021/03/14 08:14:02;;;;;;;33.38;16.98;;;0.30;99.90;;;;;;5085716;28;20031;-68
2021/03/14 08:16:28;;;;;;;36.85;17.42;;;0.30;99.90;;;;;;5083620;28;20450;-67
2021/03/14 08:18:57;;;;;;;39.92;19.42;;;0.40;99.90;;;;;;5090285;28;20028;-68
2021/03/14 08:21:32;;;;;;;33.88;18.13;;;0.40;99.90;;;;;;5090558;28;20032;-68
2021/03/14 08:23:58;;;;;;;39.63;19.60;;;0.50;99.90;;;;;;5090593;28;20054;-68
2021/03/14 08:26:33;;;;;;;34.92;18.08;;;0.50;99.90;;;;;;5090543;28;20039;-68
2021/03/14 08:29:14;;;;;;;37.78;19.08;;;0.50;99.90;;;;;;5090178;28;20038;-68
2021/03/14 08:31:48;;;;;;;36.10;18.92;;;0.60;99.90;;;;;;5090499;28;20036;-69
2021/03/14 08:34:26;;;;;;;29.50;16.63;;;0.70;99.90;;;;;;5089106;28;20563;-69
2021/03/14 08:36:53;;;;;;;30.40;17.65;;;0.70;99.90;;;;;;5090114;28;20480;-69
2021/03/14 08:39:34;;;;;;;31.95;16.52;;;0.80;99.90;;;;;;5090559;28;20103;-68
2021/03/14 08:42:06;;;;;;;30.50;16.30;;;0.80;99.90;;;;;;5090363;28;20027;-69
2021/03/14 08:44:46;;;;;;;29.20;15.27;;;0.90;99.90;;;;;;5090110;28;20090;-69
2021/03/14 08:47:14;;;;;;;34.60;17.65;;;0.90;99.90;;;;;;5090770;28;20382;-68
2021/03/14 08:49:47;;;;;;;29.38;15.98;;;0.90;99.90;;;;;;5090799;28;20024;-69
2021/03/14 08:52:14;;;;;;;29.02;15.65;;;0.90;99.90;;;;;;5090605;28;20036;-68
2021/03/14 08:54:46;;;;;;;36.72;18.83;;;0.90;99.90;;;;;;5090320;28;20016;-69
2021/03/14 08:57:15;;;;;;;33.92;17.17;;;1.00;99.90;;;;;;5090014;28;20039;-68
2021/03/14 08:59:54;;;;;;;33.88;18.25;;;0.90;99.90;;;;;;5090936;28;20024;-69
2021/03/14 09:02:24;;;;;;;33.88;17.17;;;1.00;99.90;;;;;;5089754;28;20540;-71
2021/03/14 09:04:51;;;;;;;34.20;18.03;;;1.00;99.90;;;;;;5077440;28;20032;-70
2021/03/14 09:07:17;;;;;;;35.22;19.17;;;1.10;99.90;;;;;;5070533;28;20020;-70
2021/03/14 09:09:43;;;;;;;39.40;19.55;;;1.20;99.90;;;;;;5070913;28;20502;-70
2021/03/14 09:12:15;;;;;;;38.20;19.42;;;1.20;99.90;;;;;;5087619;28;20032;-69
2021/03/14 09:14:44;;;;;;;31.95;18.33;;;1.20;99.90;;;;;;5090994;28;20044;-69
2021/03/14 09:17:11;;;;;;;33.50;18.67;;;1.20;99.90;;;;;;5074626;28;20052;-68
2021/03/14 09:19:42;;;;;;;31.15;16.88;;;1.30;99.90;;;;;;5070381;28;20033;-69
2021/03/14 09:22:09;;;;;;;32.90;17.42;;;1.40;99.90;;;;;;5071185;28;20021;-66
2021/03/14 09:24:40;;;;;;;29.55;16.38;;;1.70;99.90;;;;;;5090486;28;20038;-67
2021/03/14 09:27:16;;;;;;;34.65;18.30;;;1.70;99.90;;;;;;5094433;28;20059;-66
2021/03/14 09:29:52;;;;;;;30.25;16.50;;;1.60;99.90;;;;;;5093693;28;20032;-70
2021/03/14 09:32:32;;;;;;;28.27;16.45;;;1.80;99.90;;;;;;5093973;28;20110;-70
2021/03/14 09:35:29;;;;;;;35.05;18.60;;;2.20;99.90;;;;;;5090211;28;20035;-68
2021/03/14 09:38:01;;;;;;;35.72;18.13;;;2.10;99.90;;;;;;5094332;28;20024;-70
2021/03/14 09:40:55;;;;;;;37.30;18.85;;;1.90;99.90;;;;;;5085564;28;20538;-68
2021/03/14 09:43:26;;;;;;;31.83;17.05;;;1.90;99.90;;;;;;5088444;28;20036;-73
2021/03/14 09:45:57;;;;;;;28.40;14.10;;;1.90;99.90;;;;;;5093546;28;20036;-65
2021/03/14 09:48:24;;;;;;;36.45;17.17;;;2.30;99.90;;;;;;5093466;28;20051;-69
2021/03/14 09:50:54;;;;;;;30.83;16.63;;;4.20;99.90;;;;;;5093534;28;20028;-67
2021/03/14 09:53:25;;;;;;;32.07;16.37;;;3.90;97.00;;;;;;5094292;28;20043;-69
2021/03/14 09:55:54;;;;;;;28.92;16.45;;;3.40;96.90;;;;;;5094075;28;20031;-69
2021/03/14 09:58:22;;;;;;;32.90;17.58;;;3.00;99.00;;;;;;5093646;28;20103;-69
2021/03/14 10:00:50;;;;;;;31.88;17.65;;;2.70;99.90;;;;;;5093957;28;20057;-69
2021/03/14 10:03:24;;;;;;;33.55;18.58;;;2.50;99.90;;;;;;5080347;28;20024;-69
2021/03/14 10:05:55;;;;;;;31.85;17.40;;;2.40;99.90;;;;;;5074059;28;20024;-71
2021/03/14 10:08:21;;;;;;;29.80;16.10;;;2.30;99.90;;;;;;5086861;28;20020;-71
2021/03/14 10:10:50;;;;;;;31.90;17.42;;;2.30;99.90;;;;;;5073746;28;20036;-70
2021/03/14 10:13:17;;;;;;;28.77;16.00;;;2.30;99.90;;;;;;5085575;28;20383;-70
2021/03/14 10:15:44;;;;;;;28.70;15.60;;;2.30;99.90;;;;;;5074833;28;20484;-69
2021/03/14 10:18:16;;;;;;;29.70;15.50;;;2.30;99.90;;;;;;5083734;28;20032;-70
2021/03/14 10:20:42;;;;;;;28.48;15.18;;;2.30;99.90;;;;;;5075931;28;20028;-71
2021/03/14 10:23:08;;;;;;;28.88;16.40;;;2.40;99.90;;;;;;5073464;28;20070;-73
2021/03/14 10:25:36;;;;;;;29.65;16.88;;;2.40;99.90;;;;;;5074108;28;20072;-72
2021/03/14 10:28:17;;;;;;;30.73;16.00;;;2.50;99.90;;;;;;5085959;28;20411;-71
2021/03/14 10:30:46;;;;;;;31.70;16.08;;;2.40;99.90;;;;;;5087021;28;20032;-73
2021/03/14 10:33:13;;;;;;;32.70;15.63;;;2.40;99.90;;;;;;5081042;28;20074;-72
2021/03/14 10:35:41;;;;;;;33.40;16.13;;;2.40;99.90;;;;;;5092514;28;20046;-72
2021/03/14 10:38:19;;;;;;;27.52;16.00;;;2.40;99.90;;;;;;5072964;28;20113;-72
2021/03/14 10:40:46;;;;;;;29.55;15.38;;;2.40;99.90;;;;;;5072679;28;20107;-71
2021/03/14 10:43:26;;;;;;;25.08;14.60;;;2.50;99.90;;;;;;5072835;28;20109;-69
2021/03/14 10:45:53;;;;;;;31.63;15.93;;;2.50;99.90;;;;;;5077292;28;20039;-71
2021/03/14 10:48:28;;;;;;;30.10;15.82;;;2.50;99.90;;;;;;5092940;28;20020;-72
2021/03/14 10:51:02;;;;;;;24.40;14.00;;;2.50;99.90;;;;;;5092715;28;20036;-72
2021/03/14 10:53:28;;;;;;;27.25;14.68;;;2.40;99.90;;;;;;5092408;28;20154;-68
2021/03/14 10:56:05;;;;;;;24.52;13.63;;;2.50;99.90;;;;;;5092786;28;20482;-72
2021/03/14 10:58:39;;;;;;;26.77;13.57;;;2.80;99.90;;;;;;5091698;28;20016;-72
2021/03/14 11:01:07;;;;;;;24.95;13.85;;;2.70;99.60;;;;;;5092352;28;20475;-72
2021/03/14 11:03:38;;;;;;;27.02;14.15;;;2.80;99.90;;;;;;5090626;28;20103;-72
2021/03/14 11:06:14;;;;;;;27.35;15.27;;;2.80;99.70;;;;;;5080873;28;20024;-72
2021/03/14 11:08:55;;;;;;;27.85;15.50;;;2.80;99.30;;;;;;5090594;28;20103;-72
2021/03/14 11:11:30;;;;;;;27.00;15.35;;;2.80;99.30;;;;;;5072078;28;20538;-72
2021/03/14 11:13:56;;;;;;;29.25;15.45;;;2.80;98.80;;;;;;5075473;28;20384;-72
2021/03/14 11:16:25;;;;;;;28.75;16.05;;;2.80;99.10;;;;;;5082858;28;20109;-73
2021/03/14 11:19:04;;;;;;;25.05;14.35;;;2.80;99.10;;;;;;5088367;28;20058;-72
2021/03/14 11:21:30;;;;;;;28.02;15.80;;;2.80;99.00;;;;;;5082501;28;20020;-72
2021/03/14 11:23:56;;;;;;;27.58;14.55;;;2.80;99.30;;;;;;5086101;28;20077;-72
2021/03/14 11:26:21;;;;;;;24.20;14.55;;;2.80;99.30;;;;;;5079494;28;20495;-72
2021/03/14 11:28:48;;;;;;;24.20;14.23;;;2.80;99.00;;;;;;5092157;28;20035;-69
2021/03/14 11:31:13;;;;;;;25.75;14.88;;;2.80;98.90;;;;;;5077576;28;20028;-70
2021/03/14 11:33:39;;;;;;;24.45;13.10;;;2.90;98.50;;;;;;5091957;28;20030;-69
2021/03/14 11:36:05;;;;;;;24.85;14.27;;;2.80;97.70;;;;;;5091790;28;20024;-69
2021/03/14 11:38:32;;;;;;;24.00;13.52;;;2.70;98.70;;;;;;5082017;28;20628;-69
2021/03/14 11:40:58;;;;;;;24.73;12.38;;;2.70;98.60;;;;;;5071523;28;20025;-69
2021/03/14 11:43:24;;;;;;;22.08;12.82;;;2.70;98.70;;;;;;5071864;28;20028;-69
2021/03/14 11:45:51;;;;;;;20.65;12.68;;;2.70;98.70;;;;;;5071628;28;20033;-69
2021/03/14 11:48:17;;;;;;;20.63;11.68;;;2.70;98.90;;;;;;5077293;28;20028;-69
2021/03/14 11:50:44;;;;;;;18.65;11.00;;;2.70;98.80;;;;;;5091607;28;20101;-69
2021/03/14 11:53:09;;;;;;;19.67;10.98;;;2.70;98.50;;;;;;5087494;28;20028;-69
2021/03/14 11:55:35;;;;;;;17.48;10.95;;;2.70;98.40;;;;;;5081628;28;20070;-71
2021/03/14 11:58:01;;;;;;;18.67;10.55;;;2.70;98.70;;;;;;5077642;28;20032;-71
2021/03/14 12:00:27;;;;;;;18.88;11.20;;;2.70;98.50;;;;;;5087707;28;20089;-72
2021/03/14 12:02:53;;;;;;;15.73;9.45;;;2.70;98.50;;;;;;5081470;28;20471;-71
2021/03/14 12:05:20;;;;;;;19.42;10.48;;;2.70;98.90;;;;;;5073691;28;20029;-71
2021/03/14 12:07:46;;;;;;;16.73;10.02;;;2.80;99.50;;;;;;5091389;28;20391;-71
2021/03/14 12:10:12;;;;;;;14.65;9.25;;;2.80;99.50;;;;;;5076981;28;20035;-71
2021/03/14 12:12:38;;;;;;;15.75;10.13;;;2.90;99.00;;;;;;5084714;28;20021;-71
2021/03/14 12:15:05;;;;;;;17.38;10.00;;;2.90;98.90;;;;;;5071298;28;20045;-71
2021/03/14 12:17:31;;;;;;;17.17;9.70;;;2.90;98.80;;;;;;5085161;28;20020;-71
2021/03/14 12:19:56;;;;;;;15.75;9.95;;;2.80;98.20;;;;;;5082203;28;20027;-71
2021/03/14 12:22:22;;;;;;;17.75;10.43;;;2.80;98.70;;;;;;5091489;28;20030;-71
2021/03/14 12:24:48;;;;;;;17.27;11.15;;;2.90;98.70;;;;;;5082696;28;20017;-71
2021/03/14 12:27:14;;;;;;;17.90;9.98;;;3.00;98.70;;;;;;5086186;28;20024;-71
2021/03/14 12:29:40;;;;;;;18.02;10.32;;;3.00;97.90;;;;;;5091229;28;20035;-71
2021/03/14 12:32:07;;;;;;;15.93;10.02;;;2.90;98.50;;;;;;5091347;28;20024;-71
2021/03/14 12:34:33;;;;;;;17.33;10.20;;;2.90;97.70;;;;;;5071881;28;20048;-71
2021/03/14 12:36:59;;;;;;;20.73;11.50;;;2.90;98.10;;;;;;5071139;28;20024;-71
2021/03/14 12:39:25;;;;;;;17.65;10.93;;;3.00;98.10;;;;;;5088279;28;20020;-71
2021/03/14 12:41:51;;;;;;;19.83;11.45;;;2.90;97.80;;;;;;5082142;28;20103;-71
2021/03/14 12:44:17;;;;;;;19.70;11.00;;;3.00;98.30;;;;;;5085159;28;20078;-69
2021/03/14 12:46:42;;;;;;;21.00;11.40;;;3.10;99.90;;;;;;5086303;28;20039;-78
2021/03/14 12:49:08;;;;;;;20.02;11.38;;;3.60;99.90;;;;;;5078136;28;20023;-70
2021/03/14 12:51:34;;;;;;;21.15;11.43;;;3.90;97.90;;;;;;5070688;28;20098;-70
2021/03/14 12:54:00;;;;;;;20.00;11.25;;;3.70;95.60;;;;;;5081595;28;20052;-70
2021/03/14 12:56:26;;;;;;;20.58;12.02;;;3.50;95.60;;;;;;5090654;28;20464;-67
2021/03/14 12:58:52;;;;;;;21.65;12.15;;;3.40;96.40;;;;;;5091116;28;20012;-68
2021/03/14 13:01:18;;;;;;;19.98;12.38;;;3.40;96.90;;;;;;5094020;28;20107;-68
2021/03/14 13:03:44;;;;;;;22.40;12.07;;;3.30;97.30;;;;;;5094512;28;20103;-69
2021/03/14 13:06:10;;;;;;;22.15;13.07;;;3.30;97.00;;;;;;5094997;28;20020;-69
2021/03/14 13:08:36;;;;;;;18.40;11.43;;;3.20;97.50;;;;;;5094776;28;20127;-68
2021/03/14 13:11:02;;;;;;;20.38;12.32;;;3.10;98.00;;;;;;5095157;28;20043;-69
2021/03/14 13:13:27;;;;;;;20.35;11.25;;;3.10;99.00;;;;;;5095065;28;20030;-69
2021/03/14 13:15:53;;;;;;;18.02;10.57;;;3.00;98.20;;;;;;5094632;28;20128;-68
2021/03/14 13:18:20;;;;;;;23.75;11.82;;;3.00;98.30;;;;;;5094964;28;20020;-68
2021/03/14 13:20:47;;;;;;;17.98;11.65;;;2.90;98.30;;;;;;5094189;28;20016;-68
2021/03/14 13:23:15;;;;;;;20.50;11.93;;;2.90;99.00;;;;;;5094584;28;20038;-68
2021/03/14 13:25:41;;;;;;;18.10;9.88;;;2.80;98.70;;;;;;5094179;28;20076;-65
2021/03/14 13:28:07;;;;;;;19.90;11.23;;;2.80;99.90;;;;;;5094651;28;20114;-68
2021/03/14 13:30:32;;;;;;;22.48;12.57;;;3.10;99.20;;;;;;5109955;28;20020;-68
2021/03/14 13:32:58;;;;;;;23.45;12.23;;;3.00;98.50;;;;;;5094775;28;20111;-68
2021/03/14 13:35:25;;;;;;;22.77;13.23;;;3.00;98.80;;;;;;5094398;28;20468;-68
2021/03/14 13:37:50;;;;;;;20.63;11.77;;;3.00;99.40;;;;;;5094228;28;20063;-68
2021/03/14 13:40:18;;;;;;;22.70;12.05;;;3.00;98.60;;;;;;5094374;28;20027;-68
2021/03/14 13:42:44;;;;;;;22.02;12.68;;;3.10;98.90;;;;;;5093834;28;20020;-68
2021/03/14 13:45:11;;;;;;;23.98;13.10;;;3.00;99.10;;;;;;5094279;28;20095;-68
2021/03/14 13:47:37;;;;;;;19.10;12.35;;;3.10;98.60;;;;;;5094014;28;20023;-68
2021/03/14 13:50:04;;;;;;;20.75;12.80;;;3.00;98.80;;;;;;5094038;28;20040;-68
2021/03/14 13:52:30;;;;;;;22.58;13.35;;;3.10;99.30;;;;;;5093921;28;20499;-68
2021/03/14 13:54:56;;;;;;;22.20;12.30;;;3.10;99.60;;;;;;5094244;28;20036;-67
2021/03/14 13:57:22;;;;;;;23.05;12.82;;;3.10;99.40;;;;;;5093865;28;20032;-69
2021/03/14 13:59:47;;;;;;;23.45;12.48;;;3.10;98.90;;;;;;5092382;28;20536;-69
2021/03/14 14:02:13;;;;;;;19.95;13.65;;;3.10;99.90;;;;;;5089725;28;20089;-68
2021/03/14 14:04:39;;;;;;;25.42;13.52;;;3.20;98.60;;;;;;5092752;28;20047;-67
2021/03/14 14:07:05;;;;;;;23.23;13.00;;;3.10;98.70;;;;;;5089714;28;20032;-67
2021/03/14 14:09:30;;;;;;;22.20;12.35;;;3.00;99.10;;;;;;5075374;28;20384;-68
2021/03/14 14:11:56;;;;;;;23.40;13.50;;;2.90;99.30;;;;;;5083476;28;20060;-68
2021/03/14 14:14:22;;;;;;;27.70;14.32;;;2.90;99.90;;;;;;5080962;28;20027;-67
2021/03/14 14:16:48;;;;;;;23.33;13.88;;;2.90;99.60;;;;;;5084623;28;20361;-68
2021/03/14 14:19:13;;;;;;;22.60;13.55;;;2.80;99.80;;;;;;5080266;28;20024;-67
2021/03/14 14:21:39;;;;;;;23.90;13.88;;;2.70;99.90;;;;;;5081743;28;20501;-68
2021/03/14 14:24:05;;;;;;;23.67;14.32;;;2.60;99.90;;;;;;5075890;28;20107;-68
2021/03/14 14:26:31;;;;;;;22.58;13.77;;;2.50;99.90;;;;;;5089933;28;20063;-68
2021/03/14 14:28:57;;;;;;;25.45;14.73;;;2.50;99.90;;;;;;5075365;28;20078;-69
2021/03/14 14:31:23;;;;;;;25.25;15.20;;;2.50;99.90;;;;;;5075443;28;20075;-68
2021/03/14 14:33:49;;;;;;;25.25;14.27;;;2.50;99.90;;;;;;5085284;28;20101;-69
2021/03/14 14:36:16;;;;;;;28.23;14.82;;;2.50;99.90;;;;;;5091719;28;20166;-70
2021/03/14 14:38:41;;;;;;;27.17;14.23;;;2.50;99.90;;;;;;5092119;28;20024;-69
2021/03/14 14:41:07;;;;;;;24.75;14.23;;;2.50;99.90;;;;;;5091036;28;20016;-70
2021/03/14 14:43:33;;;;;;;27.45;14.07;;;2.50;99.90;;;;;;5086868;28;20534;-70
2021/03/14 14:45:58;;;;;;;25.67;14.85;;;2.40;99.90;;;;;;5092013;28;20048;-69
2021/03/14 14:48:24;;;;;;;27.65;14.32;;;2.50;99.90;;;;;;5089459;28;20035;-70
2021/03/14 14:50:50;;;;;;;25.85;13.80;;;2.50;99.90;;;;;;5091720;28;20040;-72
2021/03/14 14:53:16;;;;;;;24.83;13.70;;;2.50;99.90;;;;;;5091755;28;20016;-73
2021/03/14 14:55:43;;;;;;;27.15;14.05;;;2.40;99.90;;;;;;5092155;28;20150;-73
2021/03/14 14:58:09;;;;;;;25.50;14.95;;;2.40;99.90;;;;;;5089032;28;20023;-71
2021/03/14 15:00:35;;;;;;;23.17;13.90;;;2.30;99.90;;;;;;5091904;28;20105;-72
2021/03/14 15:03:01;;;;;;;24.10;14.10;;;2.30;99.90;;;;;;5091531;28;20195;-72
2021/03/14 15:05:26;;;;;;;30.88;15.80;;;2.20;99.90;;;;;;5090717;28;20376;-71
2021/03/14 15:07:52;;;;;;;28.80;15.10;;;2.10;99.90;;;;;;5089473;28;20032;-75
2021/03/14 15:10:18;;;;;;;26.23;14.50;;;2.10;99.90;;;;;;5094983;28;20443;-76
2021/03/14 15:12:44;;;;;;;30.60;13.88;;;2.10;99.90;;;;;;5094194;28;20555;-72
2021/03/14 15:15:16;;;;;;;28.55;15.57;;;2.10;99.90;;;;;;5093964;28;20126;-71
2021/03/14 15:17:41;;;;;;;27.27;16.38;;;2.10;99.90;;;;;;5089285;28;20024;-73
2021/03/14 15:20:09;;;;;;;30.88;16.77;;;2.10;99.90;;;;;;5092501;28;20020;-72
2021/03/14 15:22:35;;;;;;;25.38;15.18;;;2.00;99.90;;;;;;5092249;28;20107;-71
2021/03/14 15:25:01;;;;;;;29.73;15.70;;;2.00;99.90;;;;;;5073913;28;20587;-72
2021/03/14 15:27:28;;;;;;;28.13;15.82;;;2.00;99.90;;;;;;5092078;28;20055;-73
2021/03/14 15:29:54;;;;;;;34.38;16.75;;;1.90;99.90;;;;;;5092023;28;20437;-74
2021/03/14 15:32:20;;;;;;;28.88;15.88;;;1.80;99.90;;;;;;5093718;28;20016;-74
2021/03/14 15:34:46;;;;;;;30.02;15.52;;;1.70;99.90;;;;;;5092438;28;20027;-74
2021/03/14 15:37:12;;;;;;;31.08;16.05;;;1.70;99.90;;;;;;5093606;28;20032;-73
2021/03/14 15:39:38;;;;;;;30.02;16.42;;;1.60;99.90;;;;;;5093457;28;20024;-73
2021/03/14 15:42:04;;;;;;;33.72;17.55;;;1.50;99.90;;;;;;5093254;28;20028;-74
2021/03/14 15:44:29;;;;;;;31.90;16.58;;;1.40;99.90;;;;;;5091732;28;20051;-74
2021/03/14 15:46:55;;;;;;;32.83;16.25;;;1.40;99.90;;;;;;5085692;28;20129;-74
2021/03/14 15:49:21;;;;;;;28.45;16.08;;;1.30;99.90;;;;;;5087833;28;20036;-74
2021/03/14 15:51:47;;;;;;;34.42;17.63;;;1.30;99.90;;;;;;5088080;28;20032;-73
2021/03/14 15:54:13;;;;;;;31.50;16.05;;;1.30;99.90;;;;;;5092887;28;20048;-71
2021/03/14 15:56:41;;;;;;;29.88;17.23;;;1.30;99.90;;;;;;5088765;28;20020;-71
2021/03/14 15:59:07;;;;;;;31.92;16.55;;;1.20;99.90;;;;;;5090842;28;20028;-72
2021/03/14 16:01:33;;;;;;;30.88;17.60;;;1.20;99.90;;;;;;5082650;28;20025;-72
2021/03/14 16:03:58;;;;;;;32.08;16.50;;;1.20;99.90;;;;;;5090514;28;20039;-72
2021/03/14 16:06:24;;;;;;;28.73;16.05;;;1.20;99.90;;;;;;5091172;28;20035;-72
2021/03/14 16:08:50;;;;;;;32.92;16.42;;;1.20;99.90;;;;;;5091034;28;20020;-71
2021/03/14 16:11:18;;;;;;;33.72;17.90;;;1.20;99.90;;;;;;5090859;28;20388;-71
2021/03/14 16:13:44;;;;;;;31.73;17.40;;;1.10;99.90;;;;;;5088838;28;20019;-72
2021/03/14 16:16:10;;;;;;;32.70;17.08;;;1.10;99.90;;;;;;5090524;28;20054;-72
2021/03/14 16:18:35;;;;;;;34.47;17.75;;;1.10;99.90;;;;;;5091299;28;20028;-73
2021/03/14 16:21:01;;;;;;;39.50;18.65;;;1.10;99.90;;;;;;5091243;28;20024;-72
2021/03/14 16:23:27;;;;;;;32.88;16.65;;;1.10;99.90;;;;;;5090499;28;20021;-72
2021/03/14 16:25:53;;;;;;;28.83;16.23;;;1.20;99.90;;;;;;5089928;28;20020;-72
2021/03/14 16:28:19;;;;;;;32.92;17.67;;;1.20;99.90;;;;;;5091062;28;20028;-72
2021/03/14 16:30:44;;;;;;;31.45;18.45;;;1.20;99.90;;;;;;5090664;28;20047;-72
2021/03/14 16:33:10;;;;;;;31.08;17.73;;;1.20;99.90;;;;;;5091420;28;20506;-72
2021/03/14 16:35:36;;;;;;;39.30;19.63;;;1.30;99.90;;;;;;5094218;28;20061;-72
2021/03/14 16:38:02;;;;;;;33.55;18.33;;;1.30;99.90;;;;;;5095225;28;20500;-73
2021/03/14 16:40:27;;;;;;;32.08;17.95;;;1.30;99.90;;;;;;5095188;28;20095;-72
2021/03/14 16:42:53;;;;;;;33.20;17.75;;;1.30;99.90;;;;;;5094327;28;20028;-71
2021/03/14 16:45:20;;;;;;;32.15;17.27;;;1.30;99.90;;;;;;5094471;28;20024;-72
2021/03/14 16:47:47;;;;;;;39.28;20.08;;;1.30;99.90;;;;;;5094549;28;20023;-72
2021/03/14 16:50:14;;;;;;;36.63;19.90;;;1.30;99.90;;;;;;5094831;28;20510;-73
2021/03/14 16:52:40;;;;;;;38.22;18.33;;;1.30;99.90;;;;;;5094858;28;20031;-71
2021/03/14 16:55:07;;;;;;;29.60;16.58;;;1.30;99.90;;;;;;5092939;28;20024;-70
2021/03/14 16:57:33;;;;;;;33.03;18.45;;;1.30;99.90;;;;;;5094227;28;20031;-70